createdAt,value
2019-06-20T00:00:57.344Z,100741.48
2019-06-20T00:03:29.365Z,100742.66
2019-06-20T00:06:01.372Z,100749.30
2019-06-20T00:08:33.512Z,100749.24
2019-06-20T00:11:05.525Z,100753.05
2019-06-20T00:13:37.570Z,100754.73
2019-06-20T00:16:10.598Z,100753.86
2019-06-20T00:18:42.702Z,100758.56
2019-06-20T00:21:14.829Z,100762.05
2019-06-20T00:23:46.855Z,100767.84
2019-06-20T00:26:18.863Z,100761.72
2019-06-20T00:28:50.959Z,100763.14
2019-06-20T00:31:22.969Z,100765.34
2019-06-20T00:33:54.991Z,100767.27
2019-06-20T00:36:27.137Z,100765.58
2019-06-20T00:38:59.180Z,100766.96
2019-06-20T00:41:31.305Z,100761.91
2019-06-20T00:44:03.416Z,100760.46
2019-06-20T00:46:35.528Z,100765.40
2019-06-20T00:49:07.660Z,100766.14
2019-06-20T00:51:39.737Z,100768.72
2019-06-20T00:54:11.842Z,100768.34
2019-06-20T00:56:43.950Z,100773.51
2019-06-20T00:59:16.096Z,100777.36
2019-06-20T01:01:49.134Z,100775.13
2019-06-20T01:04:21.360Z,100777.25
2019-06-20T01:06:53.501Z,100777.48
2019-06-20T01:09:25.640Z,100782.68
2019-06-20T01:11:57.745Z,100782.68
2019-06-20T01:14:29.753Z,100775.67
2019-06-20T01:17:01.887Z,100777.28
2019-06-20T01:19:34.008Z,100780.02
2019-06-20T01:22:06.226Z,100778.36
2019-06-20T01:24:38.341Z,100779.52
2019-06-20T01:27:10.455Z,100779.16
2019-06-20T01:29:42.559Z,100785.17
2019-06-20T01:32:15.698Z,100784.59
2019-06-20T01:34:47.816Z,100781.46
2019-06-20T01:37:19.944Z,100780.53
2019-06-20T01:39:52.069Z,100788.89
2019-06-20T01:42:24.181Z,100787.95
2019-06-20T01:44:56.133Z,100787.06
2019-06-20T01:47:28.457Z,100789.03
2019-06-20T01:50:00.585Z,100795.43
2019-06-20T01:52:32.784Z,100800.93
2019-06-20T01:55:05.403Z,100801.42
2019-06-20T01:57:37.524Z,100803.16
2019-06-20T02:00:09.589Z,100800.44
2019-06-20T02:02:41.695Z,100812.11
2019-06-20T02:05:13.827Z,100818.86
2019-06-20T02:07:45.931Z,100812.16
2019-06-20T02:10:19.017Z,100811.57
2019-06-20T02:12:51.157Z,100814.97
2019-06-20T02:15:23.280Z,100814.56
2019-06-20T02:17:55.389Z,100812.50
2019-06-20T02:20:47.935Z,100809.98
2019-06-20T02:23:20.260Z,100813.66
2019-06-20T02:25:52.408Z,100811.69
2019-06-20T02:28:24.384Z,100812.93
2019-06-20T02:30:56.504Z,100818.34
2019-06-20T02:33:29.636Z,100816.80
2019-06-20T02:36:01.773Z,100816.52
2019-06-20T02:38:33.941Z,100816.34
2019-06-20T02:41:06.076Z,100822.03
2019-06-20T02:43:38.202Z,100822.45
2019-06-20T02:46:10.322Z,100819.72
2019-06-20T02:48:42.457Z,100820.67
2019-06-20T02:51:14.904Z,100823.25
2019-06-20T02:53:47.104Z,100830.91
2019-06-20T02:56:19.244Z,100825.42
2019-06-20T02:58:51.374Z,100828.27
2019-06-20T03:01:23.478Z,100828.58
2019-06-20T03:03:55.504Z,100831.18
2019-06-20T03:06:27.536Z,100826.27
2019-06-20T03:08:59.553Z,100823.64
2019-06-20T03:11:32.437Z,100823.43
2019-06-20T03:14:04.458Z,100827.93
2019-06-20T03:16:36.587Z,100832.22
2019-06-20T03:19:08.628Z,100836.09
2019-06-20T03:21:40.845Z,100835.00
2019-06-20T03:24:12.974Z,100836.50
2019-06-20T03:26:45.010Z,100839.61
2019-06-20T03:29:17.044Z,100832.20
2019-06-20T03:31:50.161Z,100831.38
2019-06-20T03:34:22.189Z,100833.42
2019-06-20T03:36:54.291Z,100839.25
2019-06-20T03:39:27.293Z,100838.52
2019-06-20T03:41:59.302Z,100843.87
2019-06-20T03:44:31.339Z,100836.38
2019-06-20T03:47:03.370Z,100832.05
2019-06-20T03:49:35.401Z,100824.61
2019-06-20T03:52:07.426Z,100826.65
2019-06-20T03:54:39.457Z,100828.08
2019-06-20T03:57:11.580Z,100828.92
2019-06-20T03:59:43.503Z,100830.16
2019-06-20T04:02:15.456Z,100828.56
2019-06-20T04:04:47.301Z,100823.37
2019-06-20T04:07:19.398Z,100822.05
2019-06-20T04:09:51.406Z,100823.22
2019-06-20T04:12:23.928Z,100824.13
2019-06-20T04:14:56.028Z,100825.81
2019-06-20T04:17:28.145Z,100819.52
2019-06-20T04:20:00.177Z,100827.37
2019-06-20T04:22:32.287Z,100824.91
2019-06-20T04:25:04.429Z,100821.84
2019-06-20T04:27:36.459Z,100829.69
2019-06-20T04:30:08.635Z,100833.87
2019-06-20T04:32:40.617Z,100830.84
2019-06-20T04:35:12.641Z,100827.51
2019-06-20T04:37:44.572Z,100822.22
2019-06-20T04:40:16.491Z,100821.92
2019-06-20T04:42:48.404Z,100823.33
2019-06-20T04:45:35.154Z,100821.32
2019-06-20T04:48:01.621Z,100822.47
2019-06-20T04:50:33.511Z,100822.71
2019-06-20T04:53:05.427Z,100820.52
2019-06-20T04:55:37.428Z,100819.09
2019-06-20T04:58:09.348Z,100816.53
2019-06-20T05:00:41.241Z,100821.27
2019-06-20T05:03:13.243Z,100819.55
2019-06-20T05:05:45.321Z,100818.34
2019-06-20T05:08:17.444Z,100823.91
2019-06-20T05:10:49.364Z,100817.99
2019-06-20T05:13:21.397Z,100821.55
2019-06-20T05:15:53.616Z,100819.55
2019-06-20T05:18:27.199Z,100818.80
2019-06-20T05:20:59.117Z,100828.84
2019-06-20T05:23:31.181Z,100822.08
2019-06-20T05:26:03.288Z,100827.09
2019-06-20T05:28:35.230Z,100821.50
2019-06-20T05:31:07.166Z,100822.79
2019-06-20T05:33:39.113Z,100821.60
2019-06-20T05:36:11.152Z,100818.14
2019-06-20T05:38:43.205Z,100821.05
2019-06-20T05:41:15.324Z,100814.25
2019-06-20T05:43:47.361Z,100818.03
2019-06-20T05:46:19.380Z,100824.53
2019-06-20T05:48:51.301Z,100821.39
2019-06-20T05:51:24.047Z,100825.83
2019-06-20T05:53:56.090Z,100825.72
2019-06-20T05:56:28.229Z,100823.45
2019-06-20T05:59:00.089Z,100824.55
2019-06-20T06:01:31.920Z,100824.24
2019-06-20T06:04:03.759Z,100822.50
2019-06-20T06:06:35.761Z,100812.29
2019-06-20T06:09:07.992Z,100815.25
2019-06-20T06:11:39.922Z,100822.66
2019-06-20T06:14:11.825Z,100814.47
2019-06-20T06:16:44.821Z,100817.15
2019-06-20T06:19:16.765Z,100813.50
2019-06-20T06:21:49.632Z,100809.80
2019-06-20T06:24:21.590Z,100813.37
2019-06-20T06:26:53.526Z,100809.87
2019-06-20T06:29:25.468Z,100809.45
2019-06-20T06:31:57.632Z,100819.41
2019-06-20T06:34:29.538Z,100810.89
2019-06-20T06:37:01.480Z,100811.62
2019-06-20T06:39:33.411Z,100796.22
2019-06-20T06:42:05.364Z,100809.52
2019-06-20T06:44:37.296Z,100811.44
2019-06-20T06:47:09.264Z,100807.56
2019-06-20T06:49:41.206Z,100807.56
2019-06-20T06:52:13.146Z,100813.94
2019-06-20T06:54:45.048Z,100813.86
2019-06-20T06:57:16.953Z,100810.88
2019-06-20T06:59:48.866Z,100812.97
2019-06-20T07:02:20.767Z,100811.13
2019-06-20T07:04:52.718Z,100803.01
2019-06-20T07:07:24.623Z,100802.44
2019-06-20T07:09:56.551Z,100799.13
2019-06-20T07:12:28.485Z,100800.63
2019-06-20T07:15:00.454Z,100800.53
2019-06-20T07:17:32.477Z,100803.34
2019-06-20T07:20:06.376Z,100803.89
2019-06-20T07:22:38.370Z,100798.56
2019-06-20T07:25:18.688Z,100792.28
2019-06-20T07:27:53.145Z,100799.95
2019-06-20T07:30:28.158Z,100798.59
2019-06-20T07:33:01.147Z,100793.76
2019-06-20T07:35:33.051Z,100798.03
2019-06-20T07:38:05.018Z,100796.05
2019-06-20T07:40:37.336Z,100792.92
2019-06-20T07:43:09.321Z,100783.36
2019-06-20T07:45:41.253Z,100797.41
2019-06-20T07:48:14.188Z,100790.00
2019-06-20T07:50:46.445Z,100785.67
2019-06-20T07:53:18.473Z,100782.91
2019-06-20T07:55:50.559Z,100779.45
2019-06-20T07:58:25.371Z,100784.73
2019-06-20T08:00:57.472Z,100781.17
2019-06-20T08:03:31.003Z,100780.01
2019-06-20T08:06:02.961Z,100783.94
2019-06-20T08:08:35.940Z,100777.23
2019-06-20T08:11:07.929Z,100785.74
2019-06-20T08:13:39.912Z,100779.11
2019-06-20T08:16:11.896Z,100777.64
2019-06-20T08:18:43.862Z,100770.70
2019-06-20T08:21:15.811Z,100764.30
2019-06-20T08:23:47.748Z,100765.77
2019-06-20T08:26:19.694Z,100764.69
2019-06-20T08:29:07.380Z,100760.91
2019-06-20T08:31:25.235Z,100759.63
2019-06-20T08:33:57.674Z,100773.01
2019-06-20T08:36:30.912Z,100768.78
2019-06-20T08:39:02.857Z,100767.78
2019-06-20T08:41:36.098Z,100769.88
2019-06-20T08:44:07.976Z,100769.94
2019-06-20T08:46:39.885Z,100775.20
2019-06-20T08:49:11.929Z,100774.27
2019-06-20T08:51:43.846Z,100771.41
2019-06-20T08:54:15.804Z,100768.16
2019-06-20T08:56:47.738Z,100763.00
2019-06-20T08:59:24.452Z,100760.55
2019-06-20T09:01:56.542Z,100761.20
2019-06-20T09:04:27.734Z,100764.77
2019-06-20T09:07:00.604Z,100767.05
2019-06-20T09:09:32.944Z,100757.25
2019-06-20T09:12:05.164Z,100759.50
2019-06-20T09:14:37.278Z,100766.28
2019-06-20T09:17:09.239Z,100766.78
2019-06-20T09:19:41.156Z,100762.42
2019-06-20T09:22:13.064Z,100758.25
2019-06-20T09:24:44.986Z,100763.76
2019-06-20T09:27:17.099Z,100751.73
2019-06-20T09:29:49.021Z,100768.67
2019-06-20T09:32:21.193Z,100758.87
2019-06-20T09:34:54.454Z,100756.50
2019-06-20T09:37:26.554Z,100760.89
2019-06-20T09:39:59.207Z,100755.98
2019-06-20T09:42:32.253Z,100751.27
2019-06-20T09:45:06.341Z,100760.27
2019-06-20T09:47:38.284Z,100751.95
2019-06-20T09:50:12.344Z,100756.88
2019-06-20T09:52:44.281Z,100766.34
2019-06-20T09:55:16.238Z,100766.64
2019-06-20T09:57:49.223Z,100760.05
2019-06-20T10:00:24.862Z,100759.25
2019-06-20T10:02:57.792Z,100758.91
2019-06-20T10:05:29.959Z,100751.14
2019-06-20T10:08:01.935Z,100750.87
2019-06-20T10:10:33.882Z,100742.67
2019-06-20T10:13:05.871Z,100751.98
2019-06-20T10:15:38.016Z,100753.08
2019-06-20T10:18:09.936Z,100746.67
2019-06-20T10:20:41.846Z,100737.56
2019-06-20T10:23:13.880Z,100740.53
2019-06-20T10:25:47.470Z,100727.40
2019-06-20T10:28:19.413Z,100730.22
2019-06-20T10:30:51.364Z,100739.31
2019-06-20T10:33:23.254Z,100737.62
2019-06-20T10:35:55.185Z,100731.63
2019-06-20T10:38:27.160Z,100728.13
2019-06-20T10:41:00.129Z,100733.28
2019-06-20T10:43:32.191Z,100734.30
2019-06-20T10:46:04.110Z,100741.13
2019-06-20T10:48:36.037Z,100738.72
2019-06-20T10:51:26.245Z,100744.10
2019-06-20T10:53:58.254Z,100739.39
2019-06-20T10:56:31.166Z,100736.06
2019-06-20T10:59:03.289Z,100732.16
2019-06-20T11:01:35.226Z,100735.41
2019-06-20T11:04:07.151Z,100728.19
2019-06-20T11:06:40.044Z,100730.01
2019-06-20T11:09:12.613Z,100733.67
2019-06-20T11:11:44.782Z,100732.59
2019-06-20T11:14:16.829Z,100726.84
2019-06-20T11:16:50.603Z,100734.34
2019-06-20T11:19:22.508Z,100737.34
2019-06-20T11:21:54.372Z,100734.52
2019-06-20T11:24:26.314Z,100733.20
2019-06-20T11:26:58.231Z,100732.46
2019-06-20T11:29:30.169Z,100731.19
2019-06-20T11:32:02.107Z,100734.17
2019-06-20T11:34:34.103Z,100727.53
2019-06-20T11:37:06.024Z,100730.19
2019-06-20T11:39:38.915Z,100731.95
2019-06-20T11:42:11.011Z,100722.69
2019-06-20T11:44:43.116Z,100722.37
2019-06-20T11:47:15.178Z,100723.87
2019-06-20T11:49:47.108Z,100726.45
2019-06-20T11:52:19.019Z,100723.29
2019-06-20T11:54:50.949Z,100724.80
2019-06-20T11:57:22.956Z,100729.44
2019-06-20T11:59:54.975Z,100720.95
2019-06-20T12:02:26.913Z,100721.04
2019-06-20T12:04:58.834Z,100723.03
2019-06-20T12:07:30.755Z,100721.79
2019-06-20T12:10:04.467Z,100719.45
2019-06-20T12:12:36.413Z,100712.70
2019-06-20T12:15:09.141Z,100711.11
2019-06-20T12:17:43.375Z,100709.78
2019-06-20T12:20:16.621Z,100707.04
2019-06-20T12:22:50.508Z,100713.47
2019-06-20T12:25:23.396Z,100703.98
2019-06-20T12:27:55.297Z,100711.03
2019-06-20T12:30:27.140Z,100712.59
2019-06-20T12:32:59.042Z,100700.70
2019-06-20T12:35:30.949Z,100705.52
2019-06-20T12:38:02.886Z,100701.36
2019-06-20T12:40:34.781Z,100702.55
2019-06-20T12:43:06.720Z,100703.40
2019-06-20T12:45:40.007Z,100690.69
2019-06-20T12:48:12.203Z,100696.97
2019-06-20T12:50:45.089Z,100705.31
2019-06-20T12:53:17.150Z,100703.59
2019-06-20T12:55:50.697Z,100699.48
2019-06-20T12:58:23.859Z,100697.31
2019-06-20T13:00:56.179Z,100694.58
2019-06-20T13:03:28.199Z,100691.18
2019-06-20T13:06:00.230Z,100691.56
2019-06-20T13:08:32.155Z,100696.50
2019-06-20T13:11:04.090Z,100686.60
2019-06-20T13:13:38.758Z,100690.80
2019-06-20T13:16:10.230Z,100681.24
2019-06-20T13:18:44.480Z,100681.64
2019-06-20T13:21:18.954Z,100686.06
2019-06-20T13:23:50.172Z,100680.80
2019-06-20T13:26:22.095Z,100682.70
2019-06-20T13:29:03.770Z,100680.78
2019-06-20T13:31:27.564Z,100678.63
2019-06-20T13:33:59.485Z,100670.39
2019-06-20T13:36:31.436Z,100677.23
2019-06-20T13:39:05.323Z,100680.59
2019-06-20T13:41:40.786Z,100678.06
2019-06-20T13:44:14.382Z,100674.56
2019-06-20T13:46:46.736Z,100672.29
2019-06-20T13:49:18.690Z,100671.66
2019-06-20T13:51:50.626Z,100668.07
2019-06-20T13:54:22.568Z,100665.89
2019-06-20T13:56:54.500Z,100667.01
2019-06-20T13:59:26.390Z,100662.02
2019-06-20T14:02:06.658Z,100670.39
2019-06-20T14:04:32.055Z,100657.32
2019-06-20T14:07:03.967Z,100661.70
2019-06-20T14:09:36.025Z,100661.37
2019-06-20T14:12:11.357Z,100658.25
2019-06-20T14:14:44.009Z,100653.91
2019-06-20T14:17:15.981Z,100667.79
2019-06-20T14:19:48.674Z,100661.81
2019-06-20T14:22:20.690Z,100665.48
2019-06-20T14:24:53.707Z,100666.77
2019-06-20T14:27:25.688Z,100665.52
2019-06-20T14:29:57.636Z,100669.28
2019-06-20T14:32:29.589Z,100668.64
2019-06-20T14:35:01.524Z,100665.32
2019-06-20T14:37:33.443Z,100671.08
2019-06-20T14:40:07.041Z,100675.84
2019-06-20T14:42:38.957Z,100668.34
2019-06-20T14:45:10.898Z,100682.02
2019-06-20T14:47:43.926Z,100672.95
2019-06-20T14:50:16.879Z,100679.64
2019-06-20T14:52:50.002Z,100683.24
2019-06-20T14:55:23.519Z,100685.48
2019-06-20T14:57:55.598Z,100684.36
2019-06-20T15:00:27.582Z,100685.98
2019-06-20T15:02:59.522Z,100690.86
2019-06-20T15:05:34.736Z,100686.01
2019-06-20T15:08:06.041Z,100691.41
2019-06-20T15:10:38.837Z,100685.02
2019-06-20T15:13:10.801Z,100687.29
2019-06-20T15:15:42.708Z,100685.23
2019-06-20T15:18:14.650Z,100684.45
2019-06-20T15:20:46.954Z,100684.20
2019-06-20T15:23:20.293Z,100674.27
2019-06-20T15:25:52.278Z,100679.96
2019-06-20T15:28:24.217Z,100686.27
2019-06-20T15:30:57.281Z,100683.59
2019-06-20T15:33:29.374Z,100685.97
2019-06-20T15:36:01.251Z,100690.60
2019-06-20T15:38:33.178Z,100684.20
2019-06-20T15:41:05.083Z,100689.68
2019-06-20T15:43:36.987Z,100686.83
2019-06-20T15:46:08.904Z,100690.16
2019-06-20T15:48:40.957Z,100690.52
2019-06-20T15:51:12.982Z,100689.19
2019-06-20T15:53:44.897Z,100685.52
2019-06-20T15:56:16.913Z,100686.59
2019-06-20T15:58:48.932Z,100686.62
2019-06-20T16:01:20.842Z,100686.59
2019-06-20T16:03:52.765Z,100690.26
2019-06-20T16:06:25.666Z,100683.02
2019-06-20T16:08:57.581Z,100680.97
2019-06-20T16:11:29.511Z,100684.23
2019-06-20T16:14:01.425Z,100680.75
2019-06-20T16:16:33.341Z,100689.80
2019-06-20T16:19:05.252Z,100680.66
2019-06-20T16:21:37.175Z,100688.63
2019-06-20T16:24:12.458Z,100681.97
2019-06-20T16:26:42.751Z,100680.41
2019-06-20T16:29:14.704Z,100682.29
2019-06-20T16:31:46.621Z,100678.97
2019-06-20T16:34:18.557Z,100677.56
2019-06-20T16:36:50.469Z,100687.39
2019-06-20T16:39:22.456Z,100681.48
2019-06-20T16:41:54.390Z,100683.89
2019-06-20T16:44:26.294Z,100690.22
2019-06-20T16:46:58.227Z,100685.41
2019-06-20T16:49:30.381Z,100684.98
2019-06-20T16:52:02.457Z,100683.97
2019-06-20T16:54:34.408Z,100687.20
2019-06-20T16:57:06.338Z,100687.20
2019-06-20T16:59:38.268Z,100687.31
2019-06-20T17:02:10.196Z,100686.36
2019-06-20T17:04:42.085Z,100696.44
2019-06-20T17:07:14.034Z,100694.53
2019-06-20T17:09:45.924Z,100691.09
2019-06-20T17:12:17.827Z,100687.84
2019-06-20T17:14:49.748Z,100685.09
2019-06-20T17:17:21.658Z,100684.27
2019-06-20T17:19:53.586Z,100690.11
2019-06-20T17:22:25.557Z,100693.50
2019-06-20T17:24:57.494Z,100689.09
2019-06-20T17:27:29.488Z,100692.66
2019-06-20T17:30:01.870Z,100696.23
2019-06-20T17:32:34.052Z,100697.56
2019-06-20T17:35:07.682Z,100697.11
2019-06-20T17:37:39.693Z,100697.70
2019-06-20T17:40:12.223Z,100701.11
2019-06-20T17:42:45.239Z,100699.49
2019-06-20T17:45:17.366Z,100703.14
2019-06-20T17:47:49.382Z,100703.16
2019-06-20T17:50:21.399Z,100704.82
2019-06-20T17:52:53.427Z,100716.21
2019-06-20T17:55:25.453Z,100711.45
2019-06-20T17:57:57.477Z,100718.80
2019-06-20T18:00:29.413Z,100716.73
2019-06-20T18:03:01.451Z,100716.89
2019-06-20T18:05:33.495Z,100716.50
2019-06-20T18:08:14.520Z,100716.50
2019-06-20T18:10:39.250Z,100717.41
2019-06-20T18:13:11.352Z,100719.23
2019-06-20T18:15:43.366Z,100723.79
2019-06-20T18:18:15.459Z,100721.13
2019-06-20T18:20:47.482Z,100728.70
2019-06-20T18:23:19.619Z,100729.07
2019-06-20T18:25:51.687Z,100728.27
2019-06-20T18:28:23.685Z,100727.75
2019-06-20T18:30:55.702Z,100731.72
2019-06-20T18:33:27.757Z,100730.66
2019-06-20T18:35:59.789Z,100736.00
2019-06-20T18:38:31.839Z,100739.43
2019-06-20T18:41:03.908Z,100740.55
2019-06-20T18:43:35.914Z,100739.48
2019-06-20T18:46:07.942Z,100742.01
2019-06-20T18:48:40.008Z,100745.37
2019-06-20T18:51:13.189Z,100747.33
2019-06-20T18:53:45.356Z,100750.14
2019-06-20T18:56:17.386Z,100749.59
2019-06-20T18:58:49.521Z,100749.89
2019-06-20T19:01:21.577Z,100747.92
2019-06-20T19:03:53.619Z,100750.44
2019-06-20T19:06:35.610Z,100751.55
2019-06-20T19:08:59.455Z,100752.09
2019-06-20T19:11:33.105Z,100753.23
2019-06-20T19:14:05.217Z,100752.38
2019-06-20T19:16:37.185Z,100748.75
2019-06-20T19:19:09.178Z,100744.85
2019-06-20T19:21:41.228Z,100746.50
2019-06-20T19:24:14.440Z,100752.66
2019-06-20T19:26:46.458Z,100756.55
2019-06-20T19:29:18.556Z,100756.55
2019-06-20T19:31:50.606Z,100747.62
2019-06-20T19:34:22.650Z,100751.23
2019-06-20T19:36:54.789Z,100750.89
2019-06-20T19:39:26.797Z,100747.80
2019-06-20T19:41:58.854Z,100751.43
2019-06-20T19:44:31.014Z,100749.16
2019-06-20T19:47:03.060Z,100746.88
2019-06-20T19:49:35.082Z,100749.09
2019-06-20T19:52:07.089Z,100759.95
2019-06-20T19:54:39.102Z,100761.00
2019-06-20T19:57:11.121Z,100764.36
2019-06-20T19:59:46.039Z,100762.95
2019-06-20T20:02:16.873Z,100766.84
2019-06-20T20:04:48.838Z,100765.36
2019-06-20T20:07:20.963Z,100766.98
2019-06-20T20:09:52.995Z,100769.52
2019-06-20T20:12:25.036Z,100774.25
2019-06-20T20:14:57.056Z,100768.34
2019-06-20T20:17:29.111Z,100768.64
2019-06-20T20:20:07.653Z,100762.73
2019-06-20T20:22:39.638Z,100770.81
2019-06-20T20:25:11.785Z,100768.01
2019-06-20T20:27:43.831Z,100783.53
2019-06-20T20:30:15.837Z,100782.09
2019-06-20T20:32:47.956Z,100789.58
2019-06-20T20:35:34.511Z,100788.77
2019-06-20T20:37:54.820Z,100788.69
2019-06-20T20:40:27.853Z,100790.70
2019-06-20T20:42:59.901Z,100796.00
2019-06-20T20:45:31.940Z,100792.70
2019-06-20T20:48:04.215Z,100797.64
2019-06-20T20:50:36.180Z,100797.88
2019-06-20T20:53:08.232Z,100800.93
2019-06-20T20:55:40.280Z,100808.03
2019-06-20T20:58:12.320Z,100815.23
2019-06-20T21:00:51.825Z,100811.28
2019-06-20T21:03:23.959Z,100815.45
2019-06-20T21:05:57.052Z,100818.70
2019-06-20T21:08:32.842Z,100824.20
2019-06-20T21:11:03.819Z,100829.55
2019-06-20T21:13:35.809Z,100832.22
2019-06-20T21:16:07.831Z,100834.37
2019-06-20T21:18:39.863Z,100845.19
2019-06-20T21:21:11.977Z,100844.09
2019-06-20T21:23:43.988Z,100850.05
2019-06-20T21:26:16.056Z,100856.69
2019-06-20T21:28:48.084Z,100850.52
2019-06-20T21:31:20.127Z,100858.25
2019-06-20T21:33:54.482Z,100854.29
2019-06-20T21:36:25.976Z,100859.30
2019-06-20T21:38:58.129Z,100863.38
2019-06-20T21:41:30.155Z,100859.98
2019-06-20T21:44:02.185Z,100860.49
2019-06-20T21:46:34.240Z,100865.67
2019-06-20T21:49:06.279Z,100869.38
2019-06-20T21:51:38.315Z,100873.00
2019-06-20T21:54:10.373Z,100878.17
2019-06-20T21:56:42.401Z,100875.98
2019-06-20T21:59:15.330Z,100878.76
2019-06-20T22:01:48.529Z,100880.07
2019-06-20T22:04:21.861Z,100882.19
2019-06-20T22:06:53.909Z,100870.62
2019-06-20T22:09:25.940Z,100875.31
2019-06-20T22:11:57.958Z,100867.45
2019-06-20T22:14:32.432Z,100868.53
2019-06-20T22:17:03.683Z,100871.00
2019-06-20T22:19:35.833Z,100863.70
2019-06-20T22:22:07.891Z,100862.02
2019-06-20T22:24:39.942Z,100866.41
2019-06-20T22:27:11.970Z,100865.78
2019-06-20T22:29:43.979Z,100866.45
2019-06-20T22:32:16.013Z,100864.84
2019-06-20T22:34:48.044Z,100868.83
2019-06-20T22:37:20.177Z,100867.94
2019-06-20T22:39:52.336Z,100865.13
2019-06-20T22:42:24.373Z,100858.98
2019-06-20T22:44:56.415Z,100858.14
2019-06-20T22:47:28.578Z,100857.87
2019-06-20T22:50:00.598Z,100856.44
2019-06-20T22:52:32.629Z,100862.38
2019-06-20T22:55:05.771Z,100859.84
2019-06-20T22:57:37.828Z,100860.86
2019-06-20T23:00:09.882Z,100864.88
2019-06-20T23:02:41.920Z,100863.34
2019-06-20T23:05:14.057Z,100870.77
2019-06-20T23:07:46.191Z,100866.79
2019-06-20T23:10:18.228Z,100869.56
2019-06-20T23:12:50.263Z,100862.02
2019-06-20T23:15:22.360Z,100863.61
2019-06-20T23:17:54.410Z,100867.72
2019-06-20T23:20:26.416Z,100865.16
2019-06-20T23:22:58.445Z,100870.92
2019-06-20T23:25:30.607Z,100868.36
2019-06-20T23:28:02.559Z,100862.36
2019-06-20T23:30:34.551Z,100867.67
2019-06-20T23:33:06.597Z,100867.05
2019-06-20T23:35:38.626Z,100874.44
2019-06-20T23:38:10.663Z,100871.30
2019-06-20T23:40:42.897Z,100869.61
2019-06-20T23:43:14.930Z,100868.11
2019-06-20T23:45:47.018Z,100866.40
2019-06-20T23:48:19.066Z,100874.28
2019-06-20T23:50:51.095Z,100873.33
2019-06-20T23:53:27.871Z,100881.30
2019-06-20T23:55:59.884Z,100884.55
2019-06-20T23:58:31.927Z,100890.20
